TimeCDT,TemperatureF,Dew PointF,Humidity,Sea Level PressureIn,VisibilityMPH,Wind Direction,Wind SpeedMPH,Gust SpeedMPH,PrecipitationIn,Events,Conditions,WindDirDegrees,DateUTC
12:15 AM,42.8,37.4,81,29.93,10.0,Calm,Calm,-,N/A,,Clear,0,2014-03-11 05:15:00
12:35 AM,41.0,35.6,81,29.92,10.0,Calm,Calm,-,N/A,,Clear,0,2014-03-11 05:35:00
12:55 AM,42.8,37.4,81,29.91,10.0,Calm,Calm,-,N/A,,Clear,0,2014-03-11 05:55:00
1:15 AM,42.8,37.4,81,29.91,10.0,Calm,Calm,-,N/A,,Clear,0,2014-03-11 06:15:00
1:35 AM,42.8,37.4,81,29.91,10.0,Calm,Calm,-,N/A,,Clear,0,2014-03-11 06:35:00
1:55 AM,42.8,35.6,76,29.91,10.0,Calm,Calm,-,N/A,,Clear,0,2014-03-11 06:55:00
2:15 AM,42.8,35.6,76,29.91,10.0,Calm,Calm,-,N/A,,Clear,0,2014-03-11 07:15:00
2:35 AM,41.0,35.6,81,29.90,10.0,Calm,Calm,-,N/A,,Clear,0,2014-03-11 07:35:00
2:55 AM,41.0,35.6,81,29.90,10.0,Calm,Calm,-,N/A,,Clear,0,2014-03-11 07:55:00
3:15 AM,41.0,35.6,81,29.89,7.0,Calm,Calm,-,N/A,,Clear,0,2014-03-11 08:15:00
3:35 AM,41.0,35.6,81,29.89,10.0,Calm,Calm,-,N/A,,Clear,0,2014-03-11 08:35:00
3:55 AM,41.0,35.6,81,29.89,10.0,Calm,Calm,-,N/A,,Clear,0,2014-03-11 08:55:00
4:15 AM,39.2,35.6,87,29.89,10.0,Calm,Calm,-,N/A,,Clear,0,2014-03-11 09:15:00
4:35 AM,41.0,35.6,81,29.88,10.0,Calm,Calm,-,N/A,,Clear,0,2014-03-11 09:35:00
4:55 AM,41.0,35.6,81,29.88,10.0,Calm,Calm,-,N/A,,Clear,0,2014-03-11 09:55:00
5:15 AM,39.2,35.6,87,29.88,10.0,Calm,Calm,-,N/A,,Clear,0,2014-03-11 10:15:00
5:35 AM,39.2,35.6,87,29.88,10.0,Calm,Calm,-,N/A,,Clear,0,2014-03-11 10:35:00
5:55 AM,39.2,35.6,87,29.88,7.0,Calm,Calm,-,N/A,,Clear,0,2014-03-11 10:55:00
6:15 AM,39.2,35.6,87,29.88,7.0,Calm,Calm,-,N/A,,Clear,0,2014-03-11 11:15:00
6:35 AM,37.4,33.8,87,29.88,7.0,Calm,Calm,-,N/A,,Clear,0,2014-03-11 11:35:00
6:55 AM,39.2,35.6,87,29.88,10.0,Calm,Calm,-,N/A,,Clear,0,2014-03-11 11:55:00
7:15 AM,39.2,35.6,87,29.88,10.0,Calm,Calm,-,N/A,,Clear,0,2014-03-11 12:15:00
7:35 AM,39.2,35.6,87,29.88,10.0,Calm,Calm,-,N/A,,Clear,0,2014-03-11 12:35:00
7:55 AM,41.0,37.4,87,29.88,10.0,Calm,Calm,-,N/A,,Clear,0,2014-03-11 12:55:00
8:15 AM,44.6,41.0,87,29.88,10.0,Calm,Calm,-,N/A,,Clear,0,2014-03-11 13:15:00
8:35 AM,46.4,42.8,87,29.88,10.0,Calm,Calm,-,N/A,,Clear,0,2014-03-11 13:35:00
8:55 AM,53.6,44.6,72,29.87,10.0,Calm,Calm,-,N/A,,Clear,0,2014-03-11 13:55:00
9:15 AM,57.2,44.6,63,29.87,10.0,Calm,Calm,-,N/A,,Clear,0,2014-03-11 14:15:00
9:35 AM,59.0,46.4,63,29.87,10.0,Calm,Calm,-,N/A,,Clear,0,2014-03-11 14:35:00
9:55 AM,60.8,46.4,59,29.86,10.0,Calm,Calm,-,N/A,,Clear,0,2014-03-11 14:55:00
10:15 AM,62.6,46.4,55,29.86,10.0,Calm,Calm,-,N/A,,Clear,0,2014-03-11 15:15:00
10:35 AM,64.4,46.4,52,29.86,10.0,Calm,Calm,-,N/A,,Clear,0,2014-03-11 15:35:00
10:55 AM,64.4,46.4,52,29.86,10.0,Calm,Calm,-,N/A,,Clear,0,2014-03-11 15:55:00
11:15 AM,68.0,44.6,43,29.85,10.0,Calm,Calm,-,N/A,,Clear,0,2014-03-11 16:15:00
11:35 AM,68.0,44.6,43,29.85,10.0,Calm,Calm,-,N/A,,Clear,0,2014-03-11 16:35:00
11:55 AM,69.8,46.4,43,29.84,10.0,Calm,Calm,-,N/A,,Clear,0,2014-03-11 16:55:00
12:15 PM,69.8,44.6,40,29.82,10.0,Calm,Calm,-,N/A,,Clear,0,2014-03-11 17:15:00
12:35 PM,69.8,44.6,40,29.82,10.0,WSW,9.2,-,N/A,,Clear,250,2014-03-11 17:35:00
12:55 PM,69.8,44.6,40,29.81,10.0,Calm,Calm,-,N/A,,Clear,0,2014-03-11 17:55:00
1:15 PM,69.8,44.6,40,29.80,10.0,South,11.5,-,N/A,,Clear,190,2014-03-11 18:15:00
1:35 PM,71.6,44.6,38,29.79,10.0,SSW,10.4,-,N/A,,Clear,200,2014-03-11 18:35:00
1:55 PM,71.6,44.6,38,29.78,10.0,SSW,12.7,17.3,N/A,,Clear,200,2014-03-11 18:55:00
2:15 PM,71.6,46.4,41,29.77,10.0,SSW,12.7,20.7,N/A,,Clear,200,2014-03-11 19:15:00
2:35 PM,71.6,46.4,41,29.76,10.0,SSW,10.4,18.4,N/A,,Clear,210,2014-03-11 19:35:00
2:55 PM,71.6,44.6,38,29.75,10.0,SSW,10.4,16.1,N/A,,Clear,210,2014-03-11 19:55:00
3:15 PM,71.6,46.4,41,29.74,10.0,SSW,10.4,-,N/A,,Clear,210,2014-03-11 20:15:00
3:35 PM,73.4,44.6,36,29.73,10.0,SW,12.7,-,N/A,,Clear,220,2014-03-11 20:35:00
3:55 PM,73.4,44.6,36,29.73,10.0,Calm,Calm,-,N/A,,Clear,0,2014-03-11 20:55:00
4:15 PM,73.4,44.6,36,29.72,10.0,SW,10.4,16.1,N/A,,Clear,230,2014-03-11 21:15:00
4:35 PM,73.4,44.6,36,29.72,10.0,SSW,12.7,-,N/A,,Scattered Clouds,210,2014-03-11 21:35:00
4:55 PM,73.4,44.6,36,29.71,10.0,SW,11.5,18.4,N/A,,Scattered Clouds,220,2014-03-11 21:55:00
5:15 PM,71.6,44.6,38,29.71,10.0,SSW,8.1,-,N/A,,Scattered Clouds,210,2014-03-11 22:15:00
5:35 PM,71.6,44.6,38,29.70,10.0,South,8.1,-,N/A,,Scattered Clouds,190,2014-03-11 22:35:00
5:55 PM,71.6,44.6,38,29.69,10.0,South,8.1,-,N/A,,Clear,190,2014-03-11 22:55:00
6:15 PM,71.6,46.4,41,29.69,10.0,SSW,6.9,-,N/A,,Clear,210,2014-03-11 23:15:00
6:35 PM,69.8,44.6,40,29.69,10.0,South,3.5,-,N/A,,Scattered Clouds,190,2014-03-11 23:35:00
6:55 PM,69.8,44.6,40,29.69,10.0,South,4.6,-,N/A,,Clear,180,2014-03-11 23:55:00
7:15 PM,69.8,44.6,40,29.70,10.0,South,3.5,-,N/A,,Scattered Clouds,170,2014-03-12 00:15:00
7:35 PM,69.8,44.6,40,29.70,10.0,South,4.6,-,N/A,,Clear,170,2014-03-12 00:35:00
7:55 PM,69.8,46.4,43,29.70,10.0,Calm,Calm,-,N/A,,Clear,0,2014-03-12 00:55:00
8:15 PM,68.0,46.4,46,29.70,10.0,South,3.5,-,N/A,,Clear,180,2014-03-12 01:15:00
8:35 PM,68.0,46.4,46,29.70,10.0,South,6.9,-,N/A,,Clear,190,2014-03-12 01:35:00
8:55 PM,68.0,46.4,46,29.70,10.0,SSW,8.1,-,N/A,,Clear,210,2014-03-12 01:55:00
9:15 PM,68.0,48.2,49,29.70,10.0,SSW,11.5,-,N/A,,Scattered Clouds,210,2014-03-12 02:15:00
9:35 PM,66.2,48.2,52,29.70,10.0,SSW,10.4,-,N/A,,Scattered Clouds,200,2014-03-12 02:35:00
9:55 PM,66.2,48.2,52,29.70,10.0,SSW,11.5,-,N/A,,Clear,210,2014-03-12 02:55:00
10:15 PM,66.2,50.0,56,29.70,10.0,SSW,9.2,-,N/A,,Scattered Clouds,210,2014-03-12 03:15:00
10:35 PM,66.2,50.0,56,29.70,10.0,SSW,13.8,19.6,N/A,,Clear,200,2014-03-12 03:35:00
10:55 PM,64.4,50.0,59,29.69,10.0,SSW,11.5,-,N/A,,Clear,210,2014-03-12 03:55:00
11:15 PM,64.4,51.8,64,29.69,10.0,SSW,12.7,17.3,N/A,,Scattered Clouds,210,2014-03-12 04:15:00
11:35 PM,64.4,51.8,64,29.69,10.0,SSW,13.8,18.4,N/A,,Mostly Cloudy,210,2014-03-12 04:35:00
11:55 PM,62.6,51.8,68,29.68,10.0,South,13.8,19.6,N/A,,Mostly Cloudy,190,2014-03-12 04:55:00